Terminal Aerodrome Forecast
Issued by NWS

Home | Current Version | Previous Version | Text Only | Print | Product List | Glossary On
Versions: 1 2 3 4 5 6 7 8 9 10 11 12 13 14 15 16 17 18 19 20 21 22 23 24 25 26 27 28 29 30 31
000
FTUS43 KDLH 191700
TAFBRD
TAF
KBRD 191731Z 1918/2018 20011G17KT 4SM BR VCSH OVC006
      TEMPO 1918/1920 2SM -SHRA BR OVC010
     FM192100 19008KT P6SM BKN015 OVC050
     FM200000 20007KT 4SM BR SCT015 BKN050
      TEMPO 2003/2007 1 1/2SM BR
     FM200700 28009KT 5SM BR SCT015 BKN035
     FM201600 29010KT P6SM SCT035=

USA.gov is the U.S. government's official web portal to all federal, state and local government web resources and services.